Time;durP1;ratioP1;P1;durP2;ratioP2;P2;SDS_P1;SDS_P2;PMS_P1;PMS_P2;Temp;Humidity;BMP_temperature;BMP_pressure;BME280_temperature;BME280_humidity;BME280_pressure;Samples;Min_cycle;Max_cycle;Signal;HPM_P1;HPM_P2
2021/12/25 00:01:42;;;;;;;14.93;9.65;;;;;;;;;;4965052;28;20190;-80
2021/12/25 00:04:08;;;;;;;11.77;9.60;;;;;;;;;;4945399;29;20185;-83
2021/12/25 00:06:35;;;;;;;15.68;10.55;;;;;;;;;;4964849;29;20235;-80
2021/12/25 00:09:01;;;;;;;17.48;10.88;;;;;;;;;;4965904;29;20181;-81
2021/12/25 00:11:27;;;;;;;14.52;10.05;;;;;;;;;;4964449;28;20180;-80
2021/12/25 00:13:53;;;;;;;12.90;9.23;;;;;;;;;;4965713;29;20586;-80
2021/12/25 00:16:19;;;;;;;12.32;8.40;;;;;;;;;;4963888;28;20673;-81
2021/12/25 00:18:45;;;;;;;10.00;8.20;;;;;;;;;;4947524;29;20188;-80
2021/12/25 00:21:11;;;;;;;16.85;9.15;;;;;;;;;;4948153;29;20177;-80
2021/12/25 00:23:38;;;;;;;15.48;9.52;;;;;;;;;;4964933;29;20185;-80
2021/12/25 00:26:10;;;;;;;15.68;9.88;;;;;;;;;;4944506;29;20191;-80
2021/12/25 00:28:52;;;;;;;18.75;10.85;;;;;;;;;;4964735;28;20297;-81
2021/12/25 00:36:10;;;;;;;9.85;7.75;;;;;;;;;;4965252;29;20195;-81
2021/12/25 00:38:37;;;;;;;8.93;7.35;;;;;;;;;;4944776;29;20187;-82
2021/12/25 00:41:04;;;;;;;13.98;8.77;;;;;;;;;;4964660;28;20191;-81
2021/12/25 00:43:30;;;;;;;13.57;9.38;;;;;;;;;;4944612;29;20211;-81
2021/12/25 00:45:58;;;;;;;15.20;8.75;;;;;;;;;;4944313;29;20185;-81
2021/12/25 00:48:25;;;;;;;13.70;8.35;;;;;;;;;;4964829;29;20614;-80
2021/12/25 00:50:51;;;;;;;13.80;8.55;;;;;;;;;;4947380;29;20188;-80
2021/12/25 00:53:16;;;;;;;11.52;7.40;;;;;;;;;;4944596;29;20215;-80
2021/12/25 00:55:46;;;;;;;11.75;7.45;;;;;;;;;;4964478;28;20429;-80
2021/12/25 00:58:12;;;;;;;11.02;7.20;;;;;;;;;;4964486;29;20227;-80
2021/12/25 01:00:38;;;;;;;13.60;7.78;;;;;;;;;;4964138;29;20185;-80
2021/12/25 01:03:04;;;;;;;12.75;7.30;;;;;;;;;;4948664;29;20212;-80
2021/12/25 01:05:30;;;;;;;16.85;7.60;;;;;;;;;;4943918;29;20224;-80
2021/12/25 01:07:56;;;;;;;8.77;7.07;;;;;;;;;;4944428;29;20205;-80
2021/12/25 01:10:22;;;;;;;12.85;7.35;;;;;;;;;;4963842;29;20196;-80
2021/12/25 01:15:19;;;;;;;14.55;8.82;;;;;;;;;;4964856;29;20220;-80
2021/12/25 01:18:08;;;;;;;14.82;9.75;;;;;;;;;;4964477;29;20208;-80
2021/12/25 01:26:06;;;;;;;18.73;10.60;;;;;;;;;;4967970;29;20208;-80
2021/12/25 01:29:07;;;;;;;15.65;9.75;;;;;;;;;;4967622;29;20184;-80
2021/12/25 01:47:52;;;;;;;20.30;9.05;;;;;;;;;;4888631;29;20202;-80
2021/12/25 01:50:20;;;;;;;37.30;10.35;;;;;;;;;;4904390;29;20190;-80
2021/12/25 01:52:47;;;;;;;12.27;7.95;;;;;;;;;;4889345;29;20199;-80
2021/12/25 01:55:20;;;;;;;13.05;8.70;;;;;;;;;;4885162;29;20585;-80
2021/12/25 01:57:46;;;;;;;10.35;7.63;;;;;;;;;;4874640;29;20676;-81
2021/12/25 02:00:19;;;;;;;9.45;7.85;;;;;;;;;;4889665;29;20314;-80
2021/12/25 02:02:45;;;;;;;8.52;7.53;;;;;;;;;;4889079;29;20194;-80
2021/12/25 02:05:11;;;;;;;8.10;7.10;;;;;;;;;;4896731;29;20222;-81
2021/12/25 02:07:37;;;;;;;14.93;8.40;;;;;;;;;;4888711;29;20203;-80
2021/12/25 02:10:05;;;;;;;10.15;7.28;;;;;;;;;;4906227;29;20211;-80
2021/12/25 02:12:33;;;;;;;8.80;6.97;;;;;;;;;;4889951;29;20223;-80
2021/12/25 02:15:03;;;;;;;11.35;6.45;;;;;;;;;;4889730;29;20182;-80
2021/12/25 02:17:49;;;;;;;7.45;5.57;;;;;;;;;;4887579;29;20215;-79
2021/12/25 02:20:20;;;;;;;11.13;7.82;;;;;;;;;;4966455;28;20188;-80
2021/12/25 02:22:48;;;;;;;6.25;5.57;;;;;;;;;;4947393;29;20193;-80
2021/12/25 02:25:14;;;;;;;9.15;5.90;;;;;;;;;;4947043;29;20207;-80
2021/12/25 02:27:40;;;;;;;6.40;4.90;;;;;;;;;;4949422;29;20646;-80
2021/12/25 02:30:07;;;;;;;7.30;5.50;;;;;;;;;;4967432;29;20184;-80
2021/12/25 02:32:33;;;;;;;10.63;7.95;;;;;;;;;;4946409;29;20188;-81
2021/12/25 02:34:59;;;;;;;8.38;6.65;;;;;;;;;;4964784;28;20277;-81
2021/12/25 02:37:25;;;;;;;12.90;6.93;;;;;;;;;;4966550;29;20276;-80
2021/12/25 02:39:52;;;;;;;8.65;6.45;;;;;;;;;;4966126;29;20212;-81
2021/12/25 02:42:18;;;;;;;11.35;6.28;;;;;;;;;;4966601;28;20177;-80
2021/12/25 02:44:44;;;;;;;10.40;7.22;;;;;;;;;;4967772;29;20169;-80
2021/12/25 02:47:19;;;;;;;14.68;8.73;;;;;;;;;;4965471;29;20196;-80
2021/12/25 02:49:49;;;;;;;9.88;6.32;;;;;;;;;;4946010;29;20195;-80
2021/12/25 02:52:15;;;;;;;9.32;5.78;;;;;;;;;;4966809;28;20192;-80
2021/12/25 02:54:41;;;;;;;12.75;6.65;;;;;;;;;;4966800;29;20184;-80
2021/12/25 02:57:07;;;;;;;7.93;5.53;;;;;;;;;;4966751;29;20263;-80
2021/12/25 02:59:33;;;;;;;10.70;6.97;;;;;;;;;;4965811;28;20188;-80
2021/12/25 03:02:04;;;;;;;10.85;7.32;;;;;;;;;;4966031;28;20914;-80
2021/12/25 03:04:30;;;;;;;10.82;6.07;;;;;;;;;;4966039;29;20184;-80
2021/12/25 03:06:56;;;;;;;5.80;5.13;;;;;;;;;;4965775;29;20592;-80
2021/12/25 03:09:22;;;;;;;13.67;6.23;;;;;;;;;;4948649;28;20208;-79
2021/12/25 03:11:48;;;;;;;9.10;6.20;;;;;;;;;;4966435;29;20428;-80
2021/12/25 03:14:31;;;;;;;7.33;5.97;;;;;;;;;;4965979;28;20535;-80
2021/12/25 03:16:57;;;;;;;10.23;5.93;;;;;;;;;;4945293;29;20538;-80
2021/12/25 03:19:30;;;;;;;7.35;6.10;;;;;;;;;;4965527;29;20177;-80
2021/12/25 03:21:57;;;;;;;15.05;7.30;;;;;;;;;;4966100;28;20185;-80
2021/12/25 03:24:23;;;;;;;10.63;6.55;;;;;;;;;;4965965;29;20169;-80
2021/12/25 03:26:52;;;;;;;8.95;5.72;;;;;;;;;;4966309;29;20181;-80
2021/12/25 03:29:19;;;;;;;9.90;5.60;;;;;;;;;;4965285;28;20188;-80
2021/12/25 03:31:45;;;;;;;9.88;6.00;;;;;;;;;;4945226;29;20188;-80
2021/12/25 03:34:11;;;;;;;9.57;5.82;;;;;;;;;;4966141;29;20188;-80
2021/12/25 03:36:37;;;;;;;11.10;5.22;;;;;;;;;;4961892;28;20222;-80
2021/12/25 03:39:04;;;;;;;9.43;5.85;;;;;;;;;;4966678;29;20177;-80
2021/12/25 03:41:30;;;;;;;10.38;6.47;;;;;;;;;;4964818;29;20188;-80
2021/12/25 03:43:57;;;;;;;7.47;5.43;;;;;;;;;;4965006;28;20267;-80
2021/12/25 03:46:23;;;;;;;10.77;5.85;;;;;;;;;;4945911;29;20181;-80
2021/12/25 03:59:18;;;;;;;11.48;6.15;;;;;;;;;;4964813;29;20219;-80
2021/12/25 04:01:54;;;;;;;7.35;5.43;;;;;;;;;;4944837;29;20212;-80
2021/12/25 04:04:34;;;;;;;6.28;5.03;;;;;;;;;;4965314;28;20172;-80
2021/12/25 04:07:59;;;;;;;9.82;5.55;;;;;;;;;;4964995;28;20227;-79
2021/12/25 04:09:49;;;;;;;8.90;5.53;;;;;;;;;;4944487;28;20655;-80
2021/12/25 04:12:17;;;;;;;9.77;5.80;;;;;;;;;;4965072;29;20257;-80
2021/12/25 04:14:43;;;;;;;9.23;6.03;;;;;;;;;;4947569;29;20186;-80
2021/12/25 04:17:09;;;;;;;11.52;5.65;;;;;;;;;;4944413;29;20211;-80
2021/12/25 04:19:35;;;;;;;8.37;6.03;;;;;;;;;;4965039;28;20196;-80
2021/12/25 04:22:15;;;;;;;11.45;5.95;;;;;;;;;;4964764;29;20479;-80
2021/12/25 04:24:42;;;;;;;12.57;6.95;;;;;;;;;;4964885;29;20183;-80
2021/12/25 04:27:12;;;;;;;8.32;6.20;;;;;;;;;;4965015;29;20191;-80
2021/12/25 04:29:45;;;;;;;13.82;6.82;;;;;;;;;;4964482;28;20188;-80
2021/12/25 05:04:13;;;;;;;8.73;5.60;;;;;;;;;;4968740;28;20196;-81
2021/12/25 05:06:39;;;;;;;13.13;6.07;;;;;;;;;;4968483;28;20232;-81
2021/12/25 05:09:05;;;;;;;13.68;6.50;;;;;;;;;;4969172;29;20184;-81
2021/12/25 05:11:31;;;;;;;11.15;6.72;;;;;;;;;;4967796;28;20188;-80
2021/12/25 05:13:57;;;;;;;7.88;5.78;;;;;;;;;;4968252;29;20818;-81
2021/12/25 05:16:23;;;;;;;13.85;6.60;;;;;;;;;;4967706;29;20180;-81
2021/12/25 05:18:52;;;;;;;9.57;6.20;;;;;;;;;;4950477;29;20185;-81
2021/12/25 05:21:19;;;;;;;11.95;6.65;;;;;;;;;;4950852;29;20308;-80
2021/12/25 05:23:45;;;;;;;12.23;5.93;;;;;;;;;;4969210;29;20252;-81
2021/12/25 05:26:11;;;;;;;10.48;6.88;;;;;;;;;;4947376;29;20180;-81
2021/12/25 05:28:43;;;;;;;11.23;7.32;;;;;;;;;;4947906;29;20192;-81
2021/12/25 05:31:09;;;;;;;16.20;7.15;;;;;;;;;;4967972;29;20187;-81
2021/12/25 05:33:36;;;;;;;7.65;6.45;;;;;;;;;;4968037;29;20243;-81
2021/12/25 05:36:02;;;;;;;11.27;6.47;;;;;;;;;;4951477;29;20176;-81
2021/12/25 05:38:28;;;;;;;8.65;6.30;;;;;;;;;;4967488;29;20215;-80
2021/12/25 05:40:54;;;;;;;11.07;6.18;;;;;;;;;;4946932;29;20185;-81
2021/12/25 05:43:20;;;;;;;10.70;5.68;;;;;;;;;;4947555;29;20220;-81
2021/12/25 05:45:46;;;;;;;15.50;6.70;;;;;;;;;;4949243;29;20293;-81
2021/12/25 05:48:13;;;;;;;15.20;6.55;;;;;;;;;;4968820;29;20177;-81
2021/12/25 05:50:39;;;;;;;11.52;6.38;;;;;;;;;;4947472;29;20192;-81
2021/12/25 05:53:05;;;;;;;10.40;6.57;;;;;;;;;;4947520;29;20444;-80
2021/12/25 05:55:32;;;;;;;9.73;6.15;;;;;;;;;;4966939;29;20188;-80
2021/12/25 05:57:58;;;;;;;10.00;5.45;;;;;;;;;;4967468;29;20208;-81
2021/12/25 06:00:25;;;;;;;9.95;6.85;;;;;;;;;;4967544;28;20173;-81
2021/12/25 06:02:51;;;;;;;7.95;6.07;;;;;;;;;;4968293;29;20172;-81
2021/12/25 06:05:18;;;;;;;12.02;7.45;;;;;;;;;;4966628;28;20940;-80
2021/12/25 06:07:43;;;;;;;8.38;6.53;;;;;;;;;;4967338;28;20189;-81
2021/12/25 06:10:10;;;;;;;10.02;6.82;;;;;;;;;;4966075;29;20240;-81
2021/12/25 06:12:41;;;;;;;11.55;7.95;;;;;;;;;;4966630;29;20256;-81
2021/12/25 06:15:12;;;;;;;8.13;6.00;;;;;;;;;;4950899;29;20573;-82
2021/12/25 06:17:39;;;;;;;8.98;7.10;;;;;;;;;;4966305;29;20208;-82
2021/12/25 06:20:05;;;;;;;9.50;5.82;;;;;;;;;;4965026;28;20270;-82
2021/12/25 06:22:31;;;;;;;10.20;7.30;;;;;;;;;;4956543;29;20185;-82
2021/12/25 06:24:57;;;;;;;11.05;7.45;;;;;;;;;;4966545;29;20185;-81
2021/12/25 06:27:23;;;;;;;16.23;7.60;;;;;;;;;;4966903;28;20200;-81
2021/12/25 06:29:50;;;;;;;16.00;6.97;;;;;;;;;;4967689;29;20635;-82
2021/12/25 06:32:17;;;;;;;11.30;6.75;;;;;;;;;;4966581;28;20199;-81
2021/12/25 06:34:43;;;;;;;11.75;7.60;;;;;;;;;;4966591;29;20189;-81
2021/12/25 06:37:09;;;;;;;9.93;6.88;;;;;;;;;;4966479;28;20724;-81
2021/12/25 06:39:35;;;;;;;12.20;6.47;;;;;;;;;;4965971;29;20176;-81
2021/12/25 06:42:01;;;;;;;9.73;6.80;;;;;;;;;;4949582;29;20672;-81
2021/12/25 06:44:27;;;;;;;13.48;7.45;;;;;;;;;;4966446;29;20263;-81
2021/12/25 06:46:54;;;;;;;12.98;6.50;;;;;;;;;;4966159;28;20195;-80
2021/12/25 06:49:21;;;;;;;11.75;6.35;;;;;;;;;;4942876;29;20192;-81
2021/12/25 06:51:48;;;;;;;8.57;6.80;;;;;;;;;;4954565;29;20197;-81
2021/12/25 06:54:14;;;;;;;11.30;7.78;;;;;;;;;;4967331;29;20180;-81
2021/12/25 06:56:40;;;;;;;10.15;7.68;;;;;;;;;;4965969;28;20271;-81
2021/12/25 06:59:06;;;;;;;9.77;6.63;;;;;;;;;;4966364;28;20189;-81
2021/12/25 07:01:32;;;;;;;11.27;6.70;;;;;;;;;;4966130;28;20188;-81
2021/12/25 07:03:58;;;;;;;16.92;7.55;;;;;;;;;;4946474;29;20181;-82
2021/12/25 07:06:24;;;;;;;11.00;6.88;;;;;;;;;;4966398;28;20212;-82
2021/12/25 07:08:51;;;;;;;8.02;6.65;;;;;;;;;;4949228;29;20185;-82
2021/12/25 07:11:18;;;;;;;10.18;6.40;;;;;;;;;;4965401;29;20200;-82
2021/12/25 07:13:46;;;;;;;16.83;6.88;;;;;;;;;;4946036;29;20184;-81
2021/12/25 07:16:12;;;;;;;11.07;6.47;;;;;;;;;;4965450;29;20183;-82
2021/12/25 07:18:38;;;;;;;15.98;6.85;;;;;;;;;;4965911;29;20188;-81
2021/12/25 07:21:04;;;;;;;10.48;5.40;;;;;;;;;;4966432;28;20212;-82
2021/12/25 07:23:31;;;;;;;11.15;6.05;;;;;;;;;;4945946;29;20605;-81
2021/12/25 07:25:57;;;;;;;9.68;6.57;;;;;;;;;;4945839;29;20610;-81
2021/12/25 07:28:23;;;;;;;9.18;6.40;;;;;;;;;;4965352;29;20223;-81
2021/12/25 07:30:52;;;;;;;9.07;7.03;;;;;;;;;;4966303;28;20195;-81
2021/12/25 07:33:19;;;;;;;12.35;6.30;;;;;;;;;;4954642;29;20180;-82
2021/12/25 07:35:45;;;;;;;16.80;7.35;;;;;;;;;;4965680;29;20207;-81
2021/12/25 07:38:11;;;;;;;13.05;6.50;;;;;;;;;;4945417;29;20227;-81
2021/12/25 07:40:37;;;;;;;21.10;7.63;;;;;;;;;;4945596;29;20188;-81
2021/12/25 07:43:03;;;;;;;11.73;6.85;;;;;;;;;;4944732;29;20507;-81
2021/12/25 07:45:29;;;;;;;11.85;6.65;;;;;;;;;;4965665;29;20173;-82
2021/12/25 07:47:59;;;;;;;10.27;7.20;;;;;;;;;;4966545;29;20195;-82
2021/12/25 07:50:26;;;;;;;11.38;7.97;;;;;;;;;;4965318;28;20185;-81
2021/12/25 07:52:52;;;;;;;7.95;6.22;;;;;;;;;;4965416;29;20208;-81
2021/12/25 07:55:18;;;;;;;11.63;7.10;;;;;;;;;;4946034;29;20689;-81
2021/12/25 07:57:44;;;;;;;14.95;7.05;;;;;;;;;;4949395;29;20204;-82
2021/12/25 08:00:11;;;;;;;9.43;6.90;;;;;;;;;;4966529;29;20165;-82
2021/12/25 08:02:37;;;;;;;11.77;8.30;;;;;;;;;;4965261;29;20208;-82
2021/12/25 08:05:04;;;;;;;12.35;7.38;;;;;;;;;;4964661;29;20208;-82
2021/12/25 08:07:30;;;;;;;11.88;8.48;;;;;;;;;;4967436;29;20196;-81
2021/12/25 08:10:03;;;;;;;16.63;8.35;;;;;;;;;;4965143;28;20199;-81
2021/12/25 08:12:29;;;;;;;15.40;10.02;;;;;;;;;;4947234;29;20192;-81
2021/12/25 08:14:55;;;;;;;20.10;9.85;;;;;;;;;;4966229;29;20634;-81
2021/12/25 08:17:21;;;;;;;17.73;10.48;;;;;;;;;;4964458;28;20219;-82
2021/12/25 08:19:47;;;;;;;14.13;9.83;;;;;;;;;;4964506;28;20214;-81
2021/12/25 08:22:13;;;;;;;16.53;10.13;;;;;;;;;;4965011;28;20446;-81
2021/12/25 08:24:39;;;;;;;18.73;10.20;;;;;;;;;;4965169;28;20929;-81
2021/12/25 08:27:06;;;;;;;14.93;10.18;;;;;;;;;;4965454;29;20499;-81
2021/12/25 08:29:36;;;;;;;15.82;9.73;;;;;;;;;;4944930;29;20184;-81
2021/12/25 08:32:02;;;;;;;13.63;7.88;;;;;;;;;;4963770;28;20183;-81
2021/12/25 08:34:28;;;;;;;14.02;8.63;;;;;;;;;;4964387;28;20184;-82
2021/12/25 08:36:54;;;;;;;19.52;8.40;;;;;;;;;;4964773;29;20200;-81
2021/12/25 08:39:20;;;;;;;14.98;8.68;;;;;;;;;;4965611;28;20702;-81
2021/12/25 08:41:46;;;;;;;14.80;7.78;;;;;;;;;;4964708;29;20187;-81
2021/12/25 08:44:31;;;;;;;14.40;9.03;;;;;;;;;;4964795;29;20187;-81
2021/12/25 08:46:59;;;;;;;17.42;8.90;;;;;;;;;;4964050;29;20519;-81
2021/12/25 08:49:28;;;;;;;15.15;8.02;;;;;;;;;;4964163;28;20196;-81
2021/12/25 08:51:55;;;;;;;16.75;8.05;;;;;;;;;;4964462;28;20258;-82
2021/12/25 08:54:21;;;;;;;22.42;9.45;;;;;;;;;;4965416;29;20180;-81
2021/12/25 08:56:47;;;;;;;20.75;10.02;;;;;;;;;;4964977;29;20212;-81
2021/12/25 08:59:13;;;;;;;15.23;8.55;;;;;;;;;;4944592;29;20184;-81
2021/12/25 09:01:39;;;;;;;17.05;8.43;;;;;;;;;;4944231;29;20258;-81
2021/12/25 09:04:06;;;;;;;17.63;9.43;;;;;;;;;;4964887;29;20638;-81
2021/12/25 09:06:33;;;;;;;17.13;9.40;;;;;;;;;;4964592;29;20318;-81
2021/12/25 09:08:59;;;;;;;21.40;8.68;;;;;;;;;;4965523;29;20236;-81
2021/12/25 09:11:25;;;;;;;10.52;8.52;;;;;;;;;;4964025;29;20181;-81
2021/12/25 09:13:51;;;;;;;15.57;9.18;;;;;;;;;;4964322;28;20181;-81
2021/12/25 09:16:18;;;;;;;16.80;9.00;;;;;;;;;;4964447;28;20187;-81
2021/12/25 09:18:46;;;;;;;21.58;8.27;;;;;;;;;;4948769;29;20192;-81
2021/12/25 09:21:12;;;;;;;14.85;8.48;;;;;;;;;;4960991;29;20184;-81
2021/12/25 09:23:38;;;;;;;18.45;8.98;;;;;;;;;;4964340;28;20196;-81
2021/12/25 09:26:04;;;;;;;14.90;8.07;;;;;;;;;;4944253;29;20248;-81
2021/12/25 09:28:30;;;;;;;11.45;6.97;;;;;;;;;;4944059;29;20189;-81
2021/12/25 09:30:56;;;;;;;12.63;8.40;;;;;;;;;;4964331;28;20287;-81
2021/12/25 09:33:22;;;;;;;20.60;9.00;;;;;;;;;;4946742;28;20207;-81
2021/12/25 09:35:48;;;;;;;13.55;8.25;;;;;;;;;;4965665;29;20185;-81
2021/12/25 09:38:14;;;;;;;13.23;9.52;;;;;;;;;;4964154;29;20201;-81
2021/12/25 09:40:40;;;;;;;13.27;8.18;;;;;;;;;;4964176;28;20195;-81
2021/12/25 09:43:06;;;;;;;16.67;8.82;;;;;;;;;;4963372;28;20232;-81
2021/12/25 09:45:32;;;;;;;15.48;9.02;;;;;;;;;;4966914;29;20181;-81
2021/12/25 09:47:58;;;;;;;17.50;9.30;;;;;;;;;;4968284;29;20181;-81
2021/12/25 09:50:24;;;;;;;21.42;9.65;;;;;;;;;;4947459;29;20184;-81
2021/12/25 09:52:50;;;;;;;16.85;10.77;;;;;;;;;;4967345;28;20192;-81
2021/12/25 09:55:17;;;;;;;14.60;9.40;;;;;;;;;;4967575;29;20268;-81
2021/12/25 09:57:43;;;;;;;18.38;9.40;;;;;;;;;;4949631;29;20275;-81
2021/12/25 10:00:20;;;;;;;17.05;9.13;;;;;;;;;;4950447;29;20180;-81
2021/12/25 10:02:48;;;;;;;17.60;9.00;;;;;;;;;;4966520;29;20185;-81
2021/12/25 10:05:23;;;;;;;18.58;10.70;;;;;;;;;;4946600;29;20227;-81
2021/12/25 10:07:49;;;;;;;16.15;10.32;;;;;;;;;;4966679;29;20188;-81
2021/12/25 10:10:18;;;;;;;17.55;10.25;;;;;;;;;;4966823;29;20184;-81
2021/12/25 10:12:46;;;;;;;14.63;9.85;;;;;;;;;;4948870;29;20359;-81
2021/12/25 10:15:23;;;;;;;16.05;9.85;;;;;;;;;;4967697;29;20176;-81
2021/12/25 10:17:50;;;;;;;20.52;11.23;;;;;;;;;;4966456;29;20211;-81
2021/12/25 10:20:18;;;;;;;20.95;10.93;;;;;;;;;;4966495;28;20177;-81
2021/12/25 10:23:02;;;;;;;19.50;10.77;;;;;;;;;;4965950;28;20309;-81
2021/12/25 10:25:32;;;;;;;16.90;10.45;;;;;;;;;;4946397;29;20176;-81
2021/12/25 10:28:00;;;;;;;18.70;10.40;;;;;;;;;;4966682;29;20180;-81
2021/12/25 10:30:26;;;;;;;15.95;10.23;;;;;;;;;;4966036;29;20176;-80
2021/12/25 10:32:52;;;;;;;11.25;8.88;;;;;;;;;;4966832;29;20180;-81
2021/12/25 10:35:25;;;;;;;16.15;9.70;;;;;;;;;;4946619;29;20271;-80
2021/12/25 10:37:51;;;;;;;14.80;8.82;;;;;;;;;;4966540;28;20224;-81
2021/12/25 10:40:21;;;;;;;16.83;8.98;;;;;;;;;;4966328;28;20215;-81
2021/12/25 10:42:47;;;;;;;10.80;8.32;;;;;;;;;;4949527;29;20208;-80
2021/12/25 10:45:14;;;;;;;16.25;9.35;;;;;;;;;;4950073;29;20180;-80
2021/12/25 10:47:40;;;;;;;11.90;7.50;;;;;;;;;;4965952;28;20557;-81
2021/12/25 10:50:11;;;;;;;11.60;7.93;;;;;;;;;;4967142;28;20199;-81
2021/12/25 10:52:41;;;;;;;17.65;7.90;;;;;;;;;;4965999;28;20208;-80
2021/12/25 10:55:10;;;;;;;11.40;7.93;;;;;;;;;;4946197;29;20181;-81
2021/12/25 10:57:40;;;;;;;10.18;6.55;;;;;;;;;;4948823;28;20227;-80
2021/12/25 11:00:11;;;;;;;10.00;6.65;;;;;;;;;;4967260;29;20264;-81
2021/12/25 11:02:39;;;;;;;10.85;6.90;;;;;;;;;;4959847;28;20227;-81
2021/12/25 11:05:20;;;;;;;10.23;8.80;;;;;;;;;;4961144;29;20196;-80
2021/12/25 11:07:47;;;;;;;14.02;10.07;;;;;;;;;;4945972;29;20196;-81
2021/12/25 11:10:15;;;;;;;19.35;12.30;;;;;;;;;;4966248;28;20273;-80
2021/12/25 11:12:44;;;;;;;23.17;11.40;;;;;;;;;;4945423;28;20185;-81
2021/12/25 11:15:19;;;;;;;17.58;11.20;;;;;;;;;;4949122;29;20264;-80
2021/12/25 11:17:50;;;;;;;13.77;11.07;;;;;;;;;;4965620;29;20207;-81
2021/12/25 11:20:22;;;;;;;17.50;10.63;;;;;;;;;;4966022;29;20184;-81
2021/12/25 11:22:50;;;;;;;15.25;10.80;;;;;;;;;;4965265;29;20219;-81
2021/12/25 11:25:17;;;;;;;15.98;11.57;;;;;;;;;;4965943;28;20212;-80
2021/12/25 11:27:43;;;;;;;18.30;10.85;;;;;;;;;;4948246;29;20285;-80
2021/12/25 11:30:10;;;;;;;16.05;10.27;;;;;;;;;;4966721;29;20176;-81
2021/12/25 11:32:36;;;;;;;12.30;9.15;;;;;;;;;;4965280;29;20220;-81
2021/12/25 11:35:02;;;;;;;15.20;8.70;;;;;;;;;;4965644;28;20192;-81
2021/12/25 11:37:28;;;;;;;11.80;8.95;;;;;;;;;;4965633;28;20471;-80
2021/12/25 11:39:55;;;;;;;13.95;9.98;;;;;;;;;;4965882;28;20630;-80
2021/12/25 11:42:22;;;;;;;19.95;9.68;;;;;;;;;;4947935;29;20265;-80
2021/12/25 11:44:52;;;;;;;14.02;10.65;;;;;;;;;;4965090;29;20169;-80
2021/12/25 11:47:38;;;;;;;15.20;10.65;;;;;;;;;;4945372;29;20180;-81
2021/12/25 11:50:06;;;;;;;15.27;10.88;;;;;;;;;;4965500;29;20184;-81
2021/12/25 11:52:40;;;;;;;17.08;11.10;;;;;;;;;;4965401;28;20215;-81
2021/12/25 11:55:34;;;;;;;13.95;10.05;;;;;;;;;;4965617;29;20200;-81
2021/12/25 12:00:38;;;;;;;17.27;10.93;;;;;;;;;;4965325;29;20630;-81
2021/12/25 12:03:05;;;;;;;13.10;10.50;;;;;;;;;;4964716;29;20723;-81
2021/12/25 12:05:33;;;;;;;19.88;9.70;;;;;;;;;;4964728;28;20278;-80
2021/12/25 12:08:05;;;;;;;13.07;9.45;;;;;;;;;;4958897;28;20262;-80
2021/12/25 12:10:47;;;;;;;11.82;10.25;;;;;;;;;;4945169;29;20192;-81
2021/12/25 12:13:21;;;;;;;16.85;9.52;;;;;;;;;;4964204;28;20195;-81
2021/12/25 12:15:49;;;;;;;13.30;10.27;;;;;;;;;;4949244;28;20275;-81
2021/12/25 12:18:24;;;;;;;15.35;9.95;;;;;;;;;;4966085;29;20255;-81
2021/12/25 12:20:51;;;;;;;16.98;10.50;;;;;;;;;;4965073;29;20168;-81
2021/12/25 12:23:40;;;;;;;18.48;10.70;;;;;;;;;;4964605;29;20275;-81
2021/12/25 12:26:10;;;;;;;13.95;8.90;;;;;;;;;;4944619;29;20184;-81
2021/12/25 12:28:43;;;;;;;17.50;10.30;;;;;;;;;;4964600;28;20193;-81
2021/12/25 12:31:29;;;;;;;21.45;9.85;;;;;;;;;;4964900;28;20180;-81
2021/12/25 12:33:55;;;;;;;18.23;11.07;;;;;;;;;;4950247;29;20194;-81
2021/12/25 12:36:22;;;;;;;12.43;8.55;;;;;;;;;;4965761;28;20183;-81
2021/12/25 12:38:53;;;;;;;12.63;9.13;;;;;;;;;;4947530;29;20263;-81
2021/12/25 12:41:26;;;;;;;11.65;7.82;;;;;;;;;;4964075;29;20187;-81
2021/12/25 12:43:58;;;;;;;9.15;6.53;;;;;;;;;;4964281;29;20180;-81
2021/12/25 12:46:25;;;;;;;12.48;8.73;;;;;;;;;;4964170;29;20180;-81
2021/12/25 12:49:07;;;;;;;13.98;7.43;;;;;;;;;;4961461;28;20212;-81
2021/12/25 12:51:34;;;;;;;10.57;7.63;;;;;;;;;;4946678;29;20182;-81
2021/12/25 12:54:00;;;;;;;12.13;8.80;;;;;;;;;;4965673;29;20176;-81
2021/12/25 12:56:26;;;;;;;9.32;7.53;;;;;;;;;;4945305;29;20187;-81
2021/12/25 12:58:53;;;;;;;9.32;7.50;;;;;;;;;;4964672;28;20630;-81
2021/12/25 13:01:19;;;;;;;11.93;7.20;;;;;;;;;;4964595;29;20212;-81
2021/12/25 13:03:45;;;;;;;11.63;9.63;;;;;;;;;;4949044;29;20176;-81
2021/12/25 13:06:14;;;;;;;18.87;8.77;;;;;;;;;;4965419;29;20224;-81
2021/12/25 13:08:42;;;;;;;9.10;6.97;;;;;;;;;;4964516;28;20473;-81
2021/12/25 13:11:14;;;;;;;10.98;8.45;;;;;;;;;;4960748;28;20208;-81
2021/12/25 13:13:50;;;;;;;15.32;9.27;;;;;;;;;;4963922;29;20685;-81
2021/12/25 13:16:17;;;;;;;12.65;9.20;;;;;;;;;;4944223;29;20667;-81
2021/12/25 13:18:44;;;;;;;13.93;9.07;;;;;;;;;;4949421;29;20212;-81
2021/12/25 13:21:12;;;;;;;13.18;9.27;;;;;;;;;;4968944;29;20177;-81
2021/12/25 13:23:47;;;;;;;15.20;9.05;;;;;;;;;;4967261;28;20180;-81
2021/12/25 13:26:17;;;;;;;14.90;9.07;;;;;;;;;;4947931;29;20176;-81
2021/12/25 13:28:44;;;;;;;12.20;8.85;;;;;;;;;;4947804;29;20207;-81
2021/12/25 13:31:12;;;;;;;9.45;7.88;;;;;;;;;;4948295;29;20191;-81
2021/12/25 13:33:46;;;;;;;11.50;8.23;;;;;;;;;;4967845;28;20697;-81
2021/12/25 13:36:13;;;;;;;11.65;8.35;;;;;;;;;;4969387;29;20280;-81
2021/12/25 13:38:54;;;;;;;21.17;15.15;;;;;;;;;;4967209;28;20212;-81
2021/12/25 13:41:29;;;;;;;21.15;15.45;;;;;;;;;;4967745;28;20200;-81
2021/12/25 13:44:10;;;;;;;18.63;13.23;;;;;;;;;;4967443;29;20184;-81
2021/12/25 13:46:55;;;;;;;16.85;12.77;;;;;;;;;;4967328;28;20194;-81
2021/12/25 13:49:40;;;;;;;19.20;12.80;;;;;;;;;;4967646;29;20208;-81
2021/12/25 13:52:21;;;;;;;23.55;15.18;;;;;;;;;;4967905;28;20186;-81
2021/12/25 13:54:50;;;;;;;17.63;11.55;;;;;;;;;;4934863;29;20184;-81
2021/12/25 13:57:18;;;;;;;17.27;12.57;;;;;;;;;;4964462;29;20456;-81
2021/12/25 13:59:49;;;;;;;20.40;12.90;;;;;;;;;;4967768;29;20172;-80
2021/12/25 14:02:15;;;;;;;17.80;13.18;;;;;;;;;;4967675;28;20188;-81
2021/12/25 14:04:42;;;;;;;16.58;10.73;;;;;;;;;;4947147;29;20666;-81
2021/12/25 14:07:09;;;;;;;17.15;11.95;;;;;;;;;;4966740;28;20232;-81
2021/12/25 14:09:35;;;;;;;17.00;12.60;;;;;;;;;;4950232;28;20184;-81
2021/12/25 14:12:01;;;;;;;17.77;11.55;;;;;;;;;;4964348;29;20184;-81
2021/12/25 14:14:29;;;;;;;14.57;11.60;;;;;;;;;;4966634;28;20206;-81
2021/12/25 14:16:57;;;;;;;18.98;12.20;;;;;;;;;;4966424;28;20240;-81
2021/12/25 14:19:28;;;;;;;17.95;13.38;;;;;;;;;;4967221;28;20177;-81
2021/12/25 14:21:56;;;;;;;23.02;14.68;;;;;;;;;;4967047;29;20248;-81
2021/12/25 14:24:22;;;;;;;21.23;13.98;;;;;;;;;;4949854;28;20199;-81
2021/12/25 14:26:49;;;;;;;19.92;14.50;;;;;;;;;;4967381;29;20183;-81
2021/12/25 14:29:26;;;;;;;16.85;12.75;;;;;;;;;;4966482;28;20187;-81
2021/12/25 14:31:52;;;;;;;19.10;11.93;;;;;;;;;;4966626;28;20230;-81
2021/12/25 14:34:19;;;;;;;15.13;12.27;;;;;;;;;;4946776;29;20191;-81
2021/12/25 14:36:45;;;;;;;19.38;12.68;;;;;;;;;;4966236;29;20207;-81
2021/12/25 14:39:17;;;;;;;23.73;12.63;;;;;;;;;;4967534;29;20188;-80
2021/12/25 14:41:44;;;;;;;19.90;13.10;;;;;;;;;;4962035;29;20181;-81
2021/12/25 14:44:23;;;;;;;20.15;12.48;;;;;;;;;;4961954;29;20315;-80
2021/12/25 14:46:51;;;;;;;17.92;12.45;;;;;;;;;;4946344;29;20191;-78
2021/12/25 14:49:17;;;;;;;15.60;11.05;;;;;;;;;;4966526;28;20181;-80
2021/12/25 14:51:45;;;;;;;13.77;10.43;;;;;;;;;;4955462;28;20220;-80
2021/12/25 14:54:12;;;;;;;12.93;10.10;;;;;;;;;;4967297;29;20176;-80
2021/12/25 14:56:43;;;;;;;12.27;9.82;;;;;;;;;;4965746;28;20267;-80
2021/12/25 14:59:15;;;;;;;13.65;9.60;;;;;;;;;;4946491;29;20549;-80
2021/12/25 15:01:42;;;;;;;17.77;12.50;;;;;;;;;;4966273;29;20191;-80
2021/12/25 15:04:12;;;;;;;17.85;13.18;;;;;;;;;;4966114;28;20185;-80
2021/12/25 15:06:43;;;;;;;17.67;11.85;;;;;;;;;;4948391;28;20279;-80
2021/12/25 15:09:09;;;;;;;22.05;13.68;;;;;;;;;;4949648;29;20187;-80
2021/12/25 15:11:46;;;;;;;18.80;11.90;;;;;;;;;;4945865;29;20192;-80
2021/12/25 15:14:13;;;;;;;17.60;12.27;;;;;;;;;;4945977;29;20256;-80
2021/12/25 15:16:43;;;;;;;22.10;13.73;;;;;;;;;;4965384;29;20216;-80
2021/12/25 15:19:20;;;;;;;24.10;14.40;;;;;;;;;;4966082;29;20180;-80
2021/12/25 15:21:47;;;;;;;20.23;14.15;;;;;;;;;;4932862;29;20227;-80
2021/12/25 15:24:16;;;;;;;20.05;13.00;;;;;;;;;;4966888;29;20181;-80
2021/12/25 15:26:47;;;;;;;18.08;12.55;;;;;;;;;;4965802;29;20200;-80
2021/12/25 15:29:13;;;;;;;19.00;13.82;;;;;;;;;;4965874;29;20184;-80
2021/12/25 15:31:39;;;;;;;23.77;14.30;;;;;;;;;;4945549;29;20755;-80
2021/12/25 15:34:10;;;;;;;20.85;14.60;;;;;;;;;;4945801;29;20196;-80
2021/12/25 15:36:42;;;;;;;19.77;13.73;;;;;;;;;;4948320;28;20180;-80
2021/12/25 15:39:10;;;;;;;23.08;14.23;;;;;;;;;;4966884;29;20244;-80
2021/12/25 15:41:36;;;;;;;21.30;14.00;;;;;;;;;;4965207;28;20184;-80
2021/12/25 15:44:02;;;;;;;23.85;13.70;;;;;;;;;;4967046;28;20530;-79
2021/12/25 15:46:28;;;;;;;19.27;14.18;;;;;;;;;;4965533;29;20185;-80
2021/12/25 15:48:54;;;;;;;21.48;13.85;;;;;;;;;;4947805;29;20200;-80
2021/12/25 15:51:20;;;;;;;21.52;14.30;;;;;;;;;;4949201;28;20536;-80